sensor_id;sensor_type;location;lat;lon;timestamp;P1;durP1;ratioP1;P2;durP2;ratioP2
52102;SDS011;38101;53.126;6.878;2023-04-15T00:02:23;8.40;;;5.40;;
52102;SDS011;38101;53.126;6.878;2023-04-15T00:04:49;8.43;;;5.28;;
52102;SDS011;38101;53.126;6.878;2023-04-15T00:07:14;6.57;;;4.95;;
52102;SDS011;38101;53.126;6.878;2023-04-15T00:09:40;8.25;;;5.10;;
52102;SDS011;38101;53.126;6.878;2023-04-15T00:12:07;11.25;;;5.43;;
52102;SDS011;38101;53.126;6.878;2023-04-15T00:14:36;8.13;;;4.80;;
52102;SDS011;38101;53.126;6.878;2023-04-15T00:17:02;11.05;;;5.57;;
52102;SDS011;38101;53.126;6.878;2023-04-15T00:19:28;8.32;;;5.45;;
52102;SDS011;38101;53.126;6.878;2023-04-15T00:21:55;6.80;;;5.32;;
52102;SDS011;38101;53.126;6.878;2023-04-15T00:24:21;10.30;;;5.78;;
52102;SDS011;38101;53.126;6.878;2023-04-15T00:26:47;7.25;;;5.45;;
52102;SDS011;38101;53.126;6.878;2023-04-15T00:29:13;8.25;;;5.75;;
52102;SDS011;38101;53.126;6.878;2023-04-15T00:31:39;8.82;;;5.82;;
52102;SDS011;38101;53.126;6.878;2023-04-15T00:34:06;8.45;;;5.75;;
52102;SDS011;38101;53.126;6.878;2023-04-15T00:36:31;8.10;;;5.30;;
52102;SDS011;38101;53.126;6.878;2023-04-15T00:38:59;10.18;;;5.70;;
52102;SDS011;38101;53.126;6.878;2023-04-15T00:41:25;10.63;;;6.30;;
52102;SDS011;38101;53.126;6.878;2023-04-15T00:43:50;9.85;;;5.60;;
52102;SDS011;38101;53.126;6.878;2023-04-15T00:46:16;8.75;;;5.60;;
52102;SDS011;38101;53.126;6.878;2023-04-15T00:48:45;8.13;;;5.63;;
52102;SDS011;38101;53.126;6.878;2023-04-15T00:51:11;9.27;;;5.03;;
52102;SDS011;38101;53.126;6.878;2023-04-15T00:53:38;9.95;;;5.57;;
52102;SDS011;38101;53.126;6.878;2023-04-15T00:56:04;9.43;;;5.75;;
52102;SDS011;38101;53.126;6.878;2023-04-15T00:58:30;8.95;;;5.85;;
52102;SDS011;38101;53.126;6.878;2023-04-15T01:00:56;11.57;;;5.93;;
52102;SDS011;38101;53.126;6.878;2023-04-15T01:03:23;9.02;;;5.32;;
52102;SDS011;38101;53.126;6.878;2023-04-15T01:05:49;10.13;;;6.22;;
52102;SDS011;38101;53.126;6.878;2023-04-15T01:08:22;9.18;;;5.85;;
52102;SDS011;38101;53.126;6.878;2023-04-15T01:10:54;9.18;;;6.10;;
52102;SDS011;38101;53.126;6.878;2023-04-15T01:13:22;8.30;;;5.70;;
52102;SDS011;38101;53.126;6.878;2023-04-15T01:15:49;9.15;;;5.93;;
52102;SDS011;38101;53.126;6.878;2023-04-15T01:18:15;9.80;;;6.35;;
52102;SDS011;38101;53.126;6.878;2023-04-15T01:20:42;10.38;;;6.57;;
52102;SDS011;38101;53.126;6.878;2023-04-15T01:23:08;9.52;;;6.40;;
52102;SDS011;38101;53.126;6.878;2023-04-15T01:25:34;8.60;;;6.32;;
52102;SDS011;38101;53.126;6.878;2023-04-15T01:28:00;7.65;;;5.60;;
52102;SDS011;38101;53.126;6.878;2023-04-15T01:30:26;9.35;;;6.07;;
52102;SDS011;38101;53.126;6.878;2023-04-15T01:32:52;9.00;;;5.75;;
52102;SDS011;38101;53.126;6.878;2023-04-15T01:35:18;7.80;;;6.00;;
52102;SDS011;38101;53.126;6.878;2023-04-15T01:37:45;9.57;;;6.00;;
52102;SDS011;38101;53.126;6.878;2023-04-15T01:40:11;9.88;;;6.07;;
52102;SDS011;38101;53.126;6.878;2023-04-15T01:42:38;9.45;;;6.00;;
52102;SDS011;38101;53.126;6.878;2023-04-15T01:45:03;9.13;;;5.57;;
52102;SDS011;38101;53.126;6.878;2023-04-15T01:47:30;9.98;;;6.30;;
52102;SDS011;38101;53.126;6.878;2023-04-15T01:49:56;8.55;;;5.57;;
52102;SDS011;38101;53.126;6.878;2023-04-15T01:52:21;8.48;;;5.45;;
52102;SDS011;38101;53.126;6.878;2023-04-15T01:54:47;8.35;;;6.20;;
52102;SDS011;38101;53.126;6.878;2023-04-15T01:57:13;9.55;;;6.10;;
52102;SDS011;38101;53.126;6.878;2023-04-15T01:59:38;11.02;;;6.50;;
52102;SDS011;38101;53.126;6.878;2023-04-15T02:02:05;10.77;;;6.55;;
52102;SDS011;38101;53.126;6.878;2023-04-15T02:04:30;9.57;;;7.07;;
52102;SDS011;38101;53.126;6.878;2023-04-15T02:06:56;9.32;;;6.40;;
52102;SDS011;38101;53.126;6.878;2023-04-15T02:09:22;8.23;;;6.22;;
52102;SDS011;38101;53.126;6.878;2023-04-15T02:11:48;9.10;;;6.57;;
52102;SDS011;38101;53.126;6.878;2023-04-15T02:14:15;8.30;;;6.15;;
52102;SDS011;38101;53.126;6.878;2023-04-15T02:16:41;8.63;;;6.13;;
52102;SDS011;38101;53.126;6.878;2023-04-15T02:19:06;9.32;;;6.25;;
52102;SDS011;38101;53.126;6.878;2023-04-15T02:21:32;8.20;;;6.13;;
52102;SDS011;38101;53.126;6.878;2023-04-15T02:23:59;8.98;;;6.15;;
52102;SDS011;38101;53.126;6.878;2023-04-15T02:26:26;9.45;;;6.40;;
52102;SDS011;38101;53.126;6.878;2023-04-15T02:28:52;9.35;;;6.07;;
52102;SDS011;38101;53.126;6.878;2023-04-15T02:31:17;8.27;;;6.28;;
52102;SDS011;38101;53.126;6.878;2023-04-15T02:33:43;8.40;;;6.22;;
52102;SDS011;38101;53.126;6.878;2023-04-15T02:36:09;8.95;;;6.43;;
52102;SDS011;38101;53.126;6.878;2023-04-15T02:38:36;7.82;;;6.05;;
52102;SDS011;38101;53.126;6.878;2023-04-15T02:41:04;9.57;;;6.55;;
52102;SDS011;38101;53.126;6.878;2023-04-15T02:43:30;9.27;;;7.25;;
52102;SDS011;38101;53.126;6.878;2023-04-15T02:45:55;9.82;;;6.50;;
52102;SDS011;38101;53.126;6.878;2023-04-15T02:48:21;9.07;;;6.85;;
52102;SDS011;38101;53.126;6.878;2023-04-15T02:50:47;9.23;;;7.25;;
52102;SDS011;38101;53.126;6.878;2023-04-15T02:53:12;9.60;;;6.63;;
52102;SDS011;38101;53.126;6.878;2023-04-15T02:55:38;11.23;;;7.75;;
52102;SDS011;38101;53.126;6.878;2023-04-15T02:58:05;8.30;;;6.72;;
52102;SDS011;38101;53.126;6.878;2023-04-15T03:00:31;12.75;;;8.00;;
52102;SDS011;38101;53.126;6.878;2023-04-15T03:02:57;11.07;;;8.18;;
52102;SDS011;38101;53.126;6.878;2023-04-15T03:05:30;10.48;;;7.90;;
52102;SDS011;38101;53.126;6.878;2023-04-15T03:07:55;11.48;;;8.38;;
52102;SDS011;38101;53.126;6.878;2023-04-15T03:10:21;12.80;;;9.50;;
52102;SDS011;38101;53.126;6.878;2023-04-15T03:12:47;12.50;;;8.52;;
52102;SDS011;38101;53.126;6.878;2023-04-15T03:15:12;13.23;;;9.40;;
52102;SDS011;38101;53.126;6.878;2023-04-15T03:17:38;12.40;;;9.48;;
52102;SDS011;38101;53.126;6.878;2023-04-15T03:20:04;12.20;;;9.23;;
52102;SDS011;38101;53.126;6.878;2023-04-15T03:22:31;13.80;;;9.90;;
52102;SDS011;38101;53.126;6.878;2023-04-15T03:24:57;13.90;;;9.68;;
52102;SDS011;38101;53.126;6.878;2023-04-15T03:27:22;13.93;;;10.30;;
52102;SDS011;38101;53.126;6.878;2023-04-15T03:29:48;14.05;;;9.63;;
52102;SDS011;38101;53.126;6.878;2023-04-15T03:32:14;14.07;;;9.82;;
52102;SDS011;38101;53.126;6.878;2023-04-15T03:34:40;16.58;;;11.25;;
52102;SDS011;38101;53.126;6.878;2023-04-15T03:37:06;15.88;;;9.90;;
52102;SDS011;38101;53.126;6.878;2023-04-15T03:39:32;13.38;;;10.32;;
52102;SDS011;38101;53.126;6.878;2023-04-15T03:41:58;15.55;;;11.20;;
52102;SDS011;38101;53.126;6.878;2023-04-15T03:44:25;14.00;;;10.52;;
52102;SDS011;38101;53.126;6.878;2023-04-15T03:46:51;15.20;;;10.65;;
52102;SDS011;38101;53.126;6.878;2023-04-15T03:49:17;14.52;;;10.38;;
52102;SDS011;38101;53.126;6.878;2023-04-15T03:51:44;13.27;;;9.77;;
52102;SDS011;38101;53.126;6.878;2023-04-15T03:54:10;13.00;;;10.13;;
52102;SDS011;38101;53.126;6.878;2023-04-15T03:56:36;15.25;;;11.57;;
52102;SDS011;38101;53.126;6.878;2023-04-15T03:59:02;15.35;;;11.02;;
52102;SDS011;38101;53.126;6.878;2023-04-15T04:01:28;15.27;;;10.40;;
52102;SDS011;38101;53.126;6.878;2023-04-15T04:03:54;16.73;;;10.73;;
52102;SDS011;38101;53.126;6.878;2023-04-15T04:06:20;14.85;;;10.98;;
52102;SDS011;38101;53.126;6.878;2023-04-15T04:08:45;13.15;;;10.85;;
52102;SDS011;38101;53.126;6.878;2023-04-15T04:11:11;14.35;;;11.63;;
52102;SDS011;38101;53.126;6.878;2023-04-15T04:13:37;14.60;;;11.05;;
52102;SDS011;38101;53.126;6.878;2023-04-15T04:16:03;13.30;;;10.20;;
52102;SDS011;38101;53.126;6.878;2023-04-15T04:18:30;17.38;;;11.30;;
52102;SDS011;38101;53.126;6.878;2023-04-15T04:20:56;19.50;;;10.93;;
52102;SDS011;38101;53.126;6.878;2023-04-15T04:23:22;16.50;;;11.18;;
52102;SDS011;38101;53.126;6.878;2023-04-15T04:25:47;15.35;;;10.93;;
52102;SDS011;38101;53.126;6.878;2023-04-15T04:28:13;14.55;;;10.02;;
52102;SDS011;38101;53.126;6.878;2023-04-15T04:30:39;14.00;;;10.80;;
52102;SDS011;38101;53.126;6.878;2023-04-15T04:33:05;13.07;;;10.00;;
52102;SDS011;38101;53.126;6.878;2023-04-15T04:35:31;14.63;;;10.77;;
52102;SDS011;38101;53.126;6.878;2023-04-15T04:37:59;17.15;;;10.57;;
52102;SDS011;38101;53.126;6.878;2023-04-15T04:40:25;15.65;;;11.32;;
52102;SDS011;38101;53.126;6.878;2023-04-15T04:42:51;12.98;;;10.45;;
52102;SDS011;38101;53.126;6.878;2023-04-15T04:45:17;12.63;;;9.95;;
52102;SDS011;38101;53.126;6.878;2023-04-15T04:47:43;13.93;;;10.43;;
52102;SDS011;38101;53.126;6.878;2023-04-15T04:50:10;13.68;;;10.15;;
52102;SDS011;38101;53.126;6.878;2023-04-15T04:52:36;15.73;;;11.10;;
52102;SDS011;38101;53.126;6.878;2023-04-15T04:55:02;15.10;;;11.13;;
52102;SDS011;38101;53.126;6.878;2023-04-15T04:57:28;13.93;;;10.32;;
52102;SDS011;38101;53.126;6.878;2023-04-15T04:59:53;15.52;;;10.10;;
52102;SDS011;38101;53.126;6.878;2023-04-15T05:02:19;15.13;;;10.73;;
52102;SDS011;38101;53.126;6.878;2023-04-15T05:04:45;16.40;;;11.07;;
52102;SDS011;38101;53.126;6.878;2023-04-15T05:07:10;15.43;;;11.00;;
52102;SDS011;38101;53.126;6.878;2023-04-15T05:09:36;16.17;;;11.15;;
52102;SDS011;38101;53.126;6.878;2023-04-15T05:12:04;16.60;;;11.40;;
52102;SDS011;38101;53.126;6.878;2023-04-15T05:14:31;15.40;;;10.75;;
52102;SDS011;38101;53.126;6.878;2023-04-15T05:16:57;15.18;;;10.48;;
52102;SDS011;38101;53.126;6.878;2023-04-15T05:19:23;15.10;;;10.60;;
52102;SDS011;38101;53.126;6.878;2023-04-15T05:21:48;15.05;;;10.40;;
52102;SDS011;38101;53.126;6.878;2023-04-15T05:24:14;13.57;;;10.45;;
52102;SDS011;38101;53.126;6.878;2023-04-15T05:26:40;16.80;;;11.15;;
52102;SDS011;38101;53.126;6.878;2023-04-15T05:29:06;16.45;;;11.38;;
52102;SDS011;38101;53.126;6.878;2023-04-15T05:31:32;15.73;;;11.80;;
52102;SDS011;38101;53.126;6.878;2023-04-15T05:33:57;15.13;;;10.90;;
52102;SDS011;38101;53.126;6.878;2023-04-15T05:36:23;14.93;;;11.07;;
52102;SDS011;38101;53.126;6.878;2023-04-15T05:38:50;16.23;;;11.50;;
52102;SDS011;38101;53.126;6.878;2023-04-15T05:41:15;15.00;;;10.95;;
52102;SDS011;38101;53.126;6.878;2023-04-15T05:43:41;15.25;;;10.75;;
52102;SDS011;38101;53.126;6.878;2023-04-15T05:46:07;17.63;;;11.25;;
52102;SDS011;38101;53.126;6.878;2023-04-15T05:48:32;14.45;;;10.32;;
52102;SDS011;38101;53.126;6.878;2023-04-15T05:50:58;16.25;;;10.95;;
52102;SDS011;38101;53.126;6.878;2023-04-15T05:53:25;13.90;;;10.80;;
52102;SDS011;38101;53.126;6.878;2023-04-15T05:55:50;15.23;;;10.50;;
52102;SDS011;38101;53.126;6.878;2023-04-15T05:58:16;15.10;;;10.48;;
52102;SDS011;38101;53.126;6.878;2023-04-15T06:00:42;15.55;;;11.55;;
52102;SDS011;38101;53.126;6.878;2023-04-15T06:03:09;13.63;;;10.20;;
52102;SDS011;38101;53.126;6.878;2023-04-15T06:05:35;16.33;;;11.05;;
52102;SDS011;38101;53.126;6.878;2023-04-15T06:08:01;15.05;;;10.45;;
52102;SDS011;38101;53.126;6.878;2023-04-15T06:10:27;15.32;;;10.02;;
52102;SDS011;38101;53.126;6.878;2023-04-15T06:12:52;16.83;;;11.25;;
52102;SDS011;38101;53.126;6.878;2023-04-15T06:15:18;14.77;;;10.32;;
52102;SDS011;38101;53.126;6.878;2023-04-15T06:17:44;14.57;;;10.40;;
52102;SDS011;38101;53.126;6.878;2023-04-15T06:20:10;13.02;;;9.98;;
52102;SDS011;38101;53.126;6.878;2023-04-15T06:22:36;13.02;;;9.25;;
52102;SDS011;38101;53.126;6.878;2023-04-15T06:25:05;12.65;;;9.10;;
52102;SDS011;38101;53.126;6.878;2023-04-15T06:27:32;14.65;;;8.95;;
52102;SDS011;38101;53.126;6.878;2023-04-15T06:29:58;11.57;;;8.50;;
52102;SDS011;38101;53.126;6.878;2023-04-15T06:32:24;12.30;;;8.60;;
52102;SDS011;38101;53.126;6.878;2023-04-15T06:34:50;10.98;;;8.25;;
52102;SDS011;38101;53.126;6.878;2023-04-15T06:37:15;12.25;;;8.27;;
52102;SDS011;38101;53.126;6.878;2023-04-15T06:39:41;12.48;;;8.60;;
52102;SDS011;38101;53.126;6.878;2023-04-15T06:42:08;11.93;;;8.48;;
52102;SDS011;38101;53.126;6.878;2023-04-15T06:44:35;13.85;;;9.30;;
52102;SDS011;38101;53.126;6.878;2023-04-15T06:47:01;16.45;;;9.52;;
52102;SDS011;38101;53.126;6.878;2023-04-15T06:49:27;14.75;;;9.70;;
52102;SDS011;38101;53.126;6.878;2023-04-15T06:51:53;16.23;;;10.68;;
52102;SDS011;38101;53.126;6.878;2023-04-15T06:54:18;13.05;;;9.30;;
52102;SDS011;38101;53.126;6.878;2023-04-15T06:56:44;14.50;;;9.32;;
52102;SDS011;38101;53.126;6.878;2023-04-15T06:59:10;11.60;;;8.57;;
52102;SDS011;38101;53.126;6.878;2023-04-15T07:01:36;13.73;;;9.32;;
52102;SDS011;38101;53.126;6.878;2023-04-15T07:04:02;12.63;;;9.18;;
52102;SDS011;38101;53.126;6.878;2023-04-15T07:06:28;14.35;;;9.45;;
52102;SDS011;38101;53.126;6.878;2023-04-15T07:08:53;12.80;;;9.50;;
52102;SDS011;38101;53.126;6.878;2023-04-15T07:11:19;13.50;;;9.32;;
52102;SDS011;38101;53.126;6.878;2023-04-15T07:13:45;13.10;;;9.30;;
52102;SDS011;38101;53.126;6.878;2023-04-15T07:16:11;12.93;;;9.60;;
52102;SDS011;38101;53.126;6.878;2023-04-15T07:18:37;12.60;;;8.82;;
52102;SDS011;38101;53.126;6.878;2023-04-15T07:21:03;13.75;;;9.23;;
52102;SDS011;38101;53.126;6.878;2023-04-15T07:23:28;13.10;;;8.68;;
52102;SDS011;38101;53.126;6.878;2023-04-15T07:25:54;11.93;;;8.60;;
52102;SDS011;38101;53.126;6.878;2023-04-15T07:28:21;11.88;;;8.02;;
52102;SDS011;38101;53.126;6.878;2023-04-15T07:30:46;10.60;;;7.60;;
52102;SDS011;38101;53.126;6.878;2023-04-15T07:33:13;10.50;;;7.50;;
52102;SDS011;38101;53.126;6.878;2023-04-15T07:35:38;11.23;;;7.20;;
52102;SDS011;38101;53.126;6.878;2023-04-15T07:38:04;9.10;;;6.45;;
52102;SDS011;38101;53.126;6.878;2023-04-15T07:40:30;10.88;;;6.60;;
52102;SDS011;38101;53.126;6.878;2023-04-15T07:42:55;9.07;;;5.90;;
52102;SDS011;38101;53.126;6.878;2023-04-15T07:45:22;9.82;;;6.18;;
52102;SDS011;38101;53.126;6.878;2023-04-15T07:47:48;9.77;;;5.50;;
52102;SDS011;38101;53.126;6.878;2023-04-15T07:50:15;8.48;;;5.97;;
52102;SDS011;38101;53.126;6.878;2023-04-15T07:52:41;7.97;;;5.53;;
52102;SDS011;38101;53.126;6.878;2023-04-15T07:55:08;10.27;;;6.20;;
52102;SDS011;38101;53.126;6.878;2023-04-15T07:57:34;11.75;;;6.10;;
52102;SDS011;38101;53.126;6.878;2023-04-15T08:00:00;11.10;;;6.20;;
52102;SDS011;38101;53.126;6.878;2023-04-15T08:02:29;8.25;;;5.65;;
52102;SDS011;38101;53.126;6.878;2023-04-15T08:04:55;9.32;;;6.22;;
52102;SDS011;38101;53.126;6.878;2023-04-15T08:07:22;9.40;;;6.05;;
52102;SDS011;38101;53.126;6.878;2023-04-15T08:09:47;8.82;;;5.97;;
52102;SDS011;38101;53.126;6.878;2023-04-15T08:12:13;7.95;;;5.32;;
52102;SDS011;38101;53.126;6.878;2023-04-15T08:14:39;7.45;;;5.22;;
52102;SDS011;38101;53.126;6.878;2023-04-15T08:17:05;7.57;;;4.57;;
52102;SDS011;38101;53.126;6.878;2023-04-15T08:19:31;7.03;;;4.30;;
52102;SDS011;38101;53.126;6.878;2023-04-15T08:21:57;6.28;;;4.40;;
52102;SDS011;38101;53.126;6.878;2023-04-15T08:24:23;6.75;;;4.05;;
52102;SDS011;38101;53.126;6.878;2023-04-15T08:26:50;7.40;;;4.70;;
52102;SDS011;38101;53.126;6.878;2023-04-15T08:29:16;6.15;;;4.10;;
52102;SDS011;38101;53.126;6.878;2023-04-15T08:31:42;7.05;;;4.05;;
52102;SDS011;38101;53.126;6.878;2023-04-15T08:34:10;6.32;;;4.43;;
52102;SDS011;38101;53.126;6.878;2023-04-15T08:36:39;5.78;;;3.90;;
52102;SDS011;38101;53.126;6.878;2023-04-15T08:39:05;6.28;;;4.03;;
52102;SDS011;38101;53.126;6.878;2023-04-15T08:41:44;6.60;;;3.92;;
52102;SDS011;38101;53.126;6.878;2023-04-15T08:44:14;6.35;;;3.60;;
52102;SDS011;38101;53.126;6.878;2023-04-15T08:46:40;5.65;;;3.50;;
52102;SDS011;38101;53.126;6.878;2023-04-15T08:49:09;4.85;;;3.70;;
52102;SDS011;38101;53.126;6.878;2023-04-15T08:51:37;5.40;;;3.45;;
52102;SDS011;38101;53.126;6.878;2023-04-15T08:54:04;5.82;;;3.67;;
52102;SDS011;38101;53.126;6.878;2023-04-15T08:56:30;6.85;;;3.58;;
52102;SDS011;38101;53.126;6.878;2023-04-15T08:58:57;6.50;;;3.80;;
52102;SDS011;38101;53.126;6.878;2023-04-15T09:01:24;9.15;;;3.08;;
52102;SDS011;38101;53.126;6.878;2023-04-15T09:03:51;7.53;;;3.45;;
52102;SDS011;38101;53.126;6.878;2023-04-15T09:06:19;5.60;;;3.63;;
52102;SDS011;38101;53.126;6.878;2023-04-15T09:08:45;5.30;;;3.40;;
52102;SDS011;38101;53.126;6.878;2023-04-15T09:11:12;8.15;;;3.45;;
52102;SDS011;38101;53.126;6.878;2023-04-15T09:13:38;9.60;;;3.58;;
52102;SDS011;38101;53.126;6.878;2023-04-15T09:16:04;5.93;;;2.90;;
52102;SDS011;38101;53.126;6.878;2023-04-15T09:18:31;5.35;;;2.90;;
52102;SDS011;38101;53.126;6.878;2023-04-15T09:21:05;12.18;;;3.90;;
52102;SDS011;38101;53.126;6.878;2023-04-15T09:23:33;6.22;;;2.70;;
52102;SDS011;38101;53.126;6.878;2023-04-15T09:26:03;5.80;;;2.90;;
52102;SDS011;38101;53.126;6.878;2023-04-15T09:28:30;6.00;;;3.15;;
52102;SDS011;38101;53.126;6.878;2023-04-15T09:30:58;6.72;;;3.20;;
52102;SDS011;38101;53.126;6.878;2023-04-15T09:33:26;6.75;;;3.00;;
52102;SDS011;38101;53.126;6.878;2023-04-15T09:36:03;5.70;;;2.75;;
52102;SDS011;38101;53.126;6.878;2023-04-15T09:38:29;4.63;;;2.90;;
52102;SDS011;38101;53.126;6.878;2023-04-15T09:40:57;4.88;;;3.08;;
52102;SDS011;38101;53.126;6.878;2023-04-15T09:43:38;7.13;;;2.80;;
52102;SDS011;38101;53.126;6.878;2023-04-15T09:46:04;6.65;;;3.38;;
52102;SDS011;38101;53.126;6.878;2023-04-15T09:48:30;5.63;;;2.80;;
52102;SDS011;38101;53.126;6.878;2023-04-15T09:50:56;5.38;;;2.65;;
52102;SDS011;38101;53.126;6.878;2023-04-15T09:53:23;5.80;;;3.22;;
52102;SDS011;38101;53.126;6.878;2023-04-15T09:55:50;6.68;;;2.92;;
52102;SDS011;38101;53.126;6.878;2023-04-15T09:58:19;6.35;;;2.80;;
52102;SDS011;38101;53.126;6.878;2023-04-15T10:00:46;4.30;;;2.78;;
52102;SDS011;38101;53.126;6.878;2023-04-15T10:03:20;6.00;;;3.33;;
52102;SDS011;38101;53.126;6.878;2023-04-15T10:05:48;5.75;;;2.85;;
52102;SDS011;38101;53.126;6.878;2023-04-15T10:08:16;5.68;;;2.83;;
52102;SDS011;38101;53.126;6.878;2023-04-15T10:10:44;4.72;;;2.97;;
52102;SDS011;38101;53.126;6.878;2023-04-15T10:13:12;5.70;;;3.00;;
52102;SDS011;38101;53.126;6.878;2023-04-15T10:15:42;5.22;;;2.35;;
52102;SDS011;38101;53.126;6.878;2023-04-15T10:18:12;4.43;;;2.70;;
52102;SDS011;38101;53.126;6.878;2023-04-15T10:20:42;4.07;;;2.30;;
52102;SDS011;38101;53.126;6.878;2023-04-15T10:23:08;4.45;;;2.38;;
52102;SDS011;38101;53.126;6.878;2023-04-15T10:25:35;9.77;;;3.20;;
52102;SDS011;38101;53.126;6.878;2023-04-15T10:28:02;5.70;;;2.60;;
52102;SDS011;38101;53.126;6.878;2023-04-15T10:30:30;5.97;;;2.88;;
52102;SDS011;38101;53.126;6.878;2023-04-15T10:32:57;4.85;;;2.67;;
52102;SDS011;38101;53.126;6.878;2023-04-15T10:35:23;6.70;;;2.83;;
52102;SDS011;38101;53.126;6.878;2023-04-15T10:37:49;6.70;;;2.60;;
52102;SDS011;38101;53.126;6.878;2023-04-15T10:42:52;4.55;;;2.53;;
52102;SDS011;38101;53.126;6.878;2023-04-15T10:45:19;4.05;;;2.60;;
52102;SDS011;38101;53.126;6.878;2023-04-15T10:47:45;4.63;;;2.28;;
52102;SDS011;38101;53.126;6.878;2023-04-15T10:50:15;6.40;;;2.78;;
52102;SDS011;38101;53.126;6.878;2023-04-15T10:52:43;4.28;;;2.42;;
52102;SDS011;38101;53.126;6.878;2023-04-15T10:57:36;5.63;;;2.90;;
52102;SDS011;38101;53.126;6.878;2023-04-15T11:02:43;5.43;;;2.47;;
52102;SDS011;38101;53.126;6.878;2023-04-15T11:05:16;7.10;;;2.85;;
52102;SDS011;38101;53.126;6.878;2023-04-15T11:12:57;113.22;;;16.17;;
52102;SDS011;38101;53.126;6.878;2023-04-15T11:15:40;7.63;;;3.30;;
52102;SDS011;38101;53.126;6.878;2023-04-15T11:20:42;5.18;;;2.63;;
52102;SDS011;38101;53.126;6.878;2023-04-15T11:23:14;5.22;;;2.80;;
52102;SDS011;38101;53.126;6.878;2023-04-15T11:25:41;6.03;;;2.65;;
52102;SDS011;38101;53.126;6.878;2023-04-15T11:28:08;7.57;;;2.72;;
52102;SDS011;38101;53.126;6.878;2023-04-15T11:30:34;5.53;;;2.78;;
52102;SDS011;38101;53.126;6.878;2023-04-15T11:33:02;8.13;;;2.92;;
52102;SDS011;38101;53.126;6.878;2023-04-15T11:35:36;8.57;;;3.00;;
52102;SDS011;38101;53.126;6.878;2023-04-15T11:38:02;5.05;;;2.92;;
52102;SDS011;38101;53.126;6.878;2023-04-15T11:40:29;5.40;;;2.58;;
52102;SDS011;38101;53.126;6.878;2023-04-15T11:45:59;5.75;;;2.80;;
52102;SDS011;38101;53.126;6.878;2023-04-15T11:48:30;5.50;;;2.70;;
52102;SDS011;38101;53.126;6.878;2023-04-15T11:50:59;5.68;;;2.60;;
52102;SDS011;38101;53.126;6.878;2023-04-15T11:58:47;7.05;;;3.15;;
52102;SDS011;38101;53.126;6.878;2023-04-15T12:01:39;6.85;;;2.83;;
52102;SDS011;38101;53.126;6.878;2023-04-15T12:04:11;7.18;;;3.00;;
52102;SDS011;38101;53.126;6.878;2023-04-15T12:06:37;6.95;;;3.20;;
52102;SDS011;38101;53.126;6.878;2023-04-15T12:11:37;6.53;;;2.83;;
52102;SDS011;38101;53.126;6.878;2023-04-15T12:16:32;7.75;;;2.78;;
52102;SDS011;38101;53.126;6.878;2023-04-15T12:18:59;7.10;;;2.92;;
52102;SDS011;38101;53.126;6.878;2023-04-15T12:21:34;5.95;;;2.92;;
52102;SDS011;38101;53.126;6.878;2023-04-15T12:24:03;5.82;;;3.03;;
52102;SDS011;38101;53.126;6.878;2023-04-15T12:26:32;6.85;;;2.83;;
52102;SDS011;38101;53.126;6.878;2023-04-15T12:29:15;8.20;;;2.97;;
52102;SDS011;38101;53.126;6.878;2023-04-15T12:34:27;7.25;;;2.90;;
52102;SDS011;38101;53.126;6.878;2023-04-15T12:36:54;5.88;;;2.90;;
52102;SDS011;38101;53.126;6.878;2023-04-15T12:39:24;5.80;;;2.80;;
52102;SDS011;38101;53.126;6.878;2023-04-15T12:41:52;7.03;;;2.92;;
52102;SDS011;38101;53.126;6.878;2023-04-15T12:44:18;7.93;;;2.80;;
52102;SDS011;38101;53.126;6.878;2023-04-15T12:46:45;6.47;;;2.65;;
52102;SDS011;38101;53.126;6.878;2023-04-15T12:49:11;5.47;;;2.50;;
52102;SDS011;38101;53.126;6.878;2023-04-15T12:51:38;9.00;;;3.20;;
52102;SDS011;38101;53.126;6.878;2023-04-15T12:54:05;8.63;;;3.22;;
52102;SDS011;38101;53.126;6.878;2023-04-15T12:56:30;7.00;;;3.50;;
52102;SDS011;38101;53.126;6.878;2023-04-15T12:58:56;9.38;;;2.92;;
52102;SDS011;38101;53.126;6.878;2023-04-15T13:01:21;8.80;;;3.05;;
52102;SDS011;38101;53.126;6.878;2023-04-15T13:03:47;4.65;;;2.50;;
52102;SDS011;38101;53.126;6.878;2023-04-15T13:06:14;5.43;;;2.92;;
52102;SDS011;38101;53.126;6.878;2023-04-15T13:08:40;8.13;;;3.00;;
52102;SDS011;38101;53.126;6.878;2023-04-15T13:11:06;7.45;;;3.20;;
52102;SDS011;38101;53.126;6.878;2023-04-15T13:13:32;5.93;;;2.72;;
52102;SDS011;38101;53.126;6.878;2023-04-15T13:15:57;7.00;;;2.90;;
52102;SDS011;38101;53.126;6.878;2023-04-15T13:18:23;5.80;;;3.15;;
52102;SDS011;38101;53.126;6.878;2023-04-15T13:20:49;8.48;;;2.90;;
52102;SDS011;38101;53.126;6.878;2023-04-15T13:23:15;9.75;;;3.08;;
52102;SDS011;38101;53.126;6.878;2023-04-15T13:25:41;11.45;;;3.42;;
52102;SDS011;38101;53.126;6.878;2023-04-15T13:28:07;7.82;;;3.30;;
52102;SDS011;38101;53.126;6.878;2023-04-15T13:30:36;11.10;;;3.47;;
52102;SDS011;38101;53.126;6.878;2023-04-15T13:33:02;9.45;;;3.45;;
52102;SDS011;38101;53.126;6.878;2023-04-15T13:35:28;9.68;;;3.40;;
52102;SDS011;38101;53.126;6.878;2023-04-15T13:37:54;7.82;;;2.85;;
52102;SDS011;38101;53.126;6.878;2023-04-15T13:40:20;8.45;;;3.05;;
52102;SDS011;38101;53.126;6.878;2023-04-15T13:42:46;9.63;;;3.28;;
52102;SDS011;38101;53.126;6.878;2023-04-15T13:45:12;7.65;;;3.08;;
52102;SDS011;38101;53.126;6.878;2023-04-15T13:47:38;5.80;;;3.15;;
52102;SDS011;38101;53.126;6.878;2023-04-15T13:50:04;5.90;;;2.80;;
52102;SDS011;38101;53.126;6.878;2023-04-15T13:52:30;6.70;;;2.97;;
52102;SDS011;38101;53.126;6.878;2023-04-15T13:54:56;6.70;;;3.17;;
52102;SDS011;38101;53.126;6.878;2023-04-15T13:57:22;10.13;;;4.13;;
52102;SDS011;38101;53.126;6.878;2023-04-15T13:59:48;7.15;;;3.50;;
52102;SDS011;38101;53.126;6.878;2023-04-15T14:02:13;8.32;;;3.65;;
52102;SDS011;38101;53.126;6.878;2023-04-15T14:04:39;7.43;;;3.40;;
52102;SDS011;38101;53.126;6.878;2023-04-15T14:07:05;8.35;;;3.10;;
52102;SDS011;38101;53.126;6.878;2023-04-15T14:09:31;6.88;;;3.53;;
52102;SDS011;38101;53.126;6.878;2023-04-15T14:11:56;7.00;;;3.63;;
52102;SDS011;38101;53.126;6.878;2023-04-15T14:14:24;8.10;;;3.78;;
52102;SDS011;38101;53.126;6.878;2023-04-15T14:16:49;8.40;;;3.60;;
52102;SDS011;38101;53.126;6.878;2023-04-15T14:19:15;10.30;;;4.47;;
52102;SDS011;38101;53.126;6.878;2023-04-15T14:21:41;9.65;;;3.70;;
52102;SDS011;38101;53.126;6.878;2023-04-15T14:24:06;7.47;;;3.70;;
52102;SDS011;38101;53.126;6.878;2023-04-15T14:26:32;9.13;;;5.68;;
52102;SDS011;38101;53.126;6.878;2023-04-15T14:28:58;8.73;;;4.00;;
52102;SDS011;38101;53.126;6.878;2023-04-15T14:31:24;8.70;;;3.83;;
52102;SDS011;38101;53.126;6.878;2023-04-15T14:33:50;7.50;;;3.53;;
52102;SDS011;38101;53.126;6.878;2023-04-15T14:36:15;8.55;;;3.78;;
52102;SDS011;38101;53.126;6.878;2023-04-15T14:38:41;8.20;;;3.92;;
52102;SDS011;38101;53.126;6.878;2023-04-15T14:41:07;8.95;;;4.20;;
52102;SDS011;38101;53.126;6.878;2023-04-15T14:43:34;7.60;;;4.20;;
52102;SDS011;38101;53.126;6.878;2023-04-15T14:46:00;8.82;;;4.35;;
52102;SDS011;38101;53.126;6.878;2023-04-15T14:48:26;11.50;;;4.88;;
52102;SDS011;38101;53.126;6.878;2023-04-15T14:50:51;8.38;;;4.47;;
52102;SDS011;38101;53.126;6.878;2023-04-15T14:53:18;12.75;;;4.90;;
52102;SDS011;38101;53.126;6.878;2023-04-15T14:55:43;10.82;;;5.53;;
52102;SDS011;38101;53.126;6.878;2023-04-15T14:58:10;12.90;;;5.00;;
52102;SDS011;38101;53.126;6.878;2023-04-15T15:00:37;9.60;;;5.38;;
52102;SDS011;38101;53.126;6.878;2023-04-15T15:03:05;11.48;;;5.10;;
52102;SDS011;38101;53.126;6.878;2023-04-15T15:05:40;12.82;;;5.22;;
52102;SDS011;38101;53.126;6.878;2023-04-15T15:08:07;13.43;;;5.18;;
52102;SDS011;38101;53.126;6.878;2023-04-15T15:10:33;9.82;;;4.68;;